createdAt,value
2019-04-03T00:01:27.726Z,38.14
2019-04-03T00:06:33.725Z,38.16
2019-04-03T00:11:40.862Z,38.35
2019-04-03T00:16:46.200Z,38.27
2019-04-03T00:21:51.534Z,38.23
2019-04-03T00:26:57.071Z,38.52
2019-04-03T00:32:02.559Z,38.03
2019-04-03T00:37:07.955Z,38.31
2019-04-03T00:42:13.468Z,38.42
2019-04-03T00:47:19.136Z,38.43
2019-04-03T00:52:27.205Z,38.39
2019-04-03T00:57:32.305Z,38.50
2019-04-03T01:02:37.468Z,38.39
2019-04-03T01:07:44.067Z,38.75
2019-04-03T01:12:49.921Z,38.50
2019-04-03T01:17:55.621Z,38.51
2019-04-03T01:23:01.355Z,38.11
2019-04-03T01:28:06.738Z,38.77
2019-04-03T01:33:13.305Z,38.74
2019-04-03T01:38:19.825Z,38.72
2019-04-03T01:43:25.596Z,38.70
2019-04-03T01:48:31.118Z,38.82
2019-04-03T01:53:36.505Z,38.84
2019-04-03T01:58:42.257Z,39.07
2019-04-03T02:03:47.921Z,38.89
2019-04-03T02:08:53.270Z,38.83
2019-04-03T02:13:59.100Z,38.80
2019-04-03T02:19:04.957Z,39.04
2019-04-03T02:24:10.270Z,39.53
2019-04-03T02:29:16.029Z,39.22
2019-04-03T02:34:22.440Z,39.23
2019-04-03T02:39:28.327Z,39.17
2019-04-03T02:44:34.859Z,39.26
2019-04-03T02:49:42.780Z,39.51
2019-04-03T02:54:49.197Z,39.39
2019-04-03T02:59:58.184Z,39.39
2019-04-03T03:05:02.264Z,39.85
2019-04-03T03:10:08.656Z,39.68
2019-04-03T03:15:13.995Z,39.79
2019-04-03T03:20:22.432Z,39.94
2019-04-03T03:25:32.357Z,40.09
2019-04-03T03:30:45.225Z,40.10
2019-04-03T03:35:47.399Z,40.23
2019-04-03T03:40:54.093Z,40.28
2019-04-03T03:45:59.972Z,40.61
2019-04-03T03:51:06.876Z,40.48
2019-04-03T03:56:13.116Z,40.67
2019-04-03T04:01:19.524Z,40.77
2019-04-03T04:06:27.924Z,40.80
2019-04-03T04:11:32.540Z,40.81
2019-04-03T04:16:38.387Z,41.00
2019-04-03T04:21:45.211Z,41.04
2019-04-03T04:26:51.167Z,41.26
2019-04-03T04:31:56.511Z,41.11
2019-04-03T04:37:03.108Z,41.25
2019-04-03T04:42:08.521Z,41.16
2019-04-03T04:47:15.114Z,41.21
2019-04-03T04:52:21.228Z,41.07
2019-04-03T04:57:26.602Z,41.00
2019-04-03T05:02:32.621Z,40.91
2019-04-03T05:07:38.040Z,40.86
2019-04-03T05:12:45.314Z,40.73
2019-04-03T05:17:50.720Z,40.92
2019-04-03T05:22:56.435Z,40.77
2019-04-03T05:28:04.195Z,40.57
2019-04-03T05:33:11.177Z,40.56
2019-04-03T05:38:16.725Z,40.73
2019-04-03T05:43:22.430Z,40.64
2019-04-03T05:48:28.141Z,40.58
2019-04-03T05:53:36.617Z,40.54
2019-04-03T05:58:53.730Z,40.40
2019-04-03T06:03:48.188Z,40.54
2019-04-03T06:08:56.343Z,40.54
2019-04-03T06:14:00.702Z,40.34
2019-04-03T06:19:06.976Z,40.15
2019-04-03T06:24:12.867Z,40.25
2019-04-03T06:29:18.940Z,40.11
2019-04-03T06:34:24.993Z,40.24
2019-04-03T06:39:31.848Z,40.31
2019-04-03T06:44:37.621Z,40.33
2019-04-03T06:49:43.299Z,40.57
2019-04-03T06:54:48.648Z,40.58
2019-04-03T06:59:54.409Z,40.33
2019-04-03T07:05:02.426Z,39.91
2019-04-03T07:10:09.460Z,40.15
2019-04-03T07:15:15.411Z,39.76
2019-04-03T07:20:20.972Z,39.77
2019-04-03T07:25:26.916Z,39.40
2019-04-03T07:30:32.638Z,38.44
2019-04-03T07:35:40.439Z,38.33
2019-04-03T07:40:45.392Z,38.46
2019-04-03T07:45:50.947Z,38.12
2019-04-03T07:50:56.402Z,37.83
2019-04-03T07:56:01.756Z,37.72
2019-04-03T08:01:09.551Z,37.49
2019-04-03T08:06:14.633Z,37.32
2019-04-03T08:11:20.093Z,37.16
2019-04-03T08:16:25.448Z,37.13
2019-04-03T08:21:31.030Z,37.07
2019-04-03T08:26:36.381Z,37.10
2019-04-03T08:31:43.675Z,36.93
2019-04-03T08:36:49.257Z,36.47
2019-04-03T08:41:56.092Z,36.87
2019-04-03T08:47:01.656Z,37.03
2019-04-03T08:52:07.111Z,36.73
2019-04-03T08:57:12.616Z,36.14
2019-04-03T09:02:18.355Z,36.31
2019-04-03T09:07:24.909Z,35.97
2019-04-03T09:12:30.855Z,36.17
2019-04-03T09:17:36.681Z,36.27
2019-04-03T09:22:41.820Z,35.87
2019-04-03T09:27:47.748Z,35.76
2019-04-03T09:32:53.644Z,35.47
2019-04-03T09:38:00.127Z,35.31
2019-04-03T09:43:05.800Z,35.41
2019-04-03T09:48:12.397Z,35.45
2019-04-03T09:53:18.360Z,35.41
2019-04-03T09:58:23.891Z,35.24
2019-04-03T10:03:31.269Z,35.16
2019-04-03T10:08:38.098Z,35.18
2019-04-03T10:13:44.065Z,35.11
2019-04-03T10:18:49.502Z,35.00
2019-04-03T10:23:54.693Z,35.09
2019-04-03T10:29:00.345Z,34.99
2019-04-03T10:34:06.104Z,34.54
2019-04-03T10:39:12.456Z,34.83
2019-04-03T10:44:18.249Z,34.98
2019-04-03T10:49:23.831Z,34.76
2019-04-03T10:54:29.369Z,34.15
2019-04-03T10:59:35.466Z,34.14
2019-04-03T11:04:41.232Z,33.83
2019-04-03T11:09:46.688Z,33.73
2019-04-03T11:14:52.185Z,33.36
2019-04-03T11:19:57.615Z,33.05
2019-04-03T11:25:03.111Z,32.81
2019-04-03T11:30:14.239Z,32.90
2019-04-03T11:35:21.726Z,32.57
2019-04-03T11:40:26.294Z,32.33
2019-04-03T11:45:31.592Z,32.86
2019-04-03T11:50:39.446Z,32.44
2019-04-03T11:55:44.479Z,32.58
2019-04-03T12:00:51.557Z,32.04
2019-04-03T12:05:57.422Z,31.96
2019-04-03T12:11:05.319Z,32.12
2019-04-03T12:16:10.697Z,31.96
2019-04-03T12:21:18.227Z,31.88
2019-04-03T12:26:23.255Z,31.71
2019-04-03T12:31:28.824Z,31.30
2019-04-03T12:36:34.692Z,31.45
2019-04-03T12:41:42.816Z,30.95
2019-04-03T12:46:47.141Z,31.18
2019-04-03T12:51:52.825Z,31.02
2019-04-03T12:57:00.260Z,30.60
2019-04-03T13:02:06.079Z,30.24
2019-04-03T13:07:13.753Z,30.47
2019-04-03T13:12:22.060Z,30.39
2019-04-03T13:17:26.817Z,30.37
2019-04-03T13:22:32.428Z,30.30
2019-04-03T13:27:38.421Z,29.99
2019-04-03T13:32:56.770Z,29.34
2019-04-03T13:37:54.373Z,28.17
2019-04-03T13:42:58.558Z,26.64
2019-04-03T13:48:05.446Z,25.84
2019-04-03T13:53:11.455Z,25.79
2019-04-03T13:58:17.086Z,25.33
2019-04-03T14:03:22.455Z,24.86
2019-04-03T14:08:27.952Z,24.43
2019-04-03T14:13:33.506Z,25.31
2019-04-03T14:18:40.664Z,25.64
2019-04-03T14:23:46.474Z,24.38
2019-04-03T14:28:52.275Z,24.44
2019-04-03T14:33:58.460Z,25.37
2019-04-03T14:39:09.073Z,25.16
2019-04-03T14:44:14.934Z,24.58
2019-04-03T14:49:20.269Z,24.14
2019-04-03T14:54:25.907Z,24.79
2019-04-03T14:59:34.592Z,24.04
2019-04-03T15:04:38.690Z,24.07
2019-04-03T15:09:44.231Z,23.05
2019-04-03T15:14:49.692Z,23.25
2019-04-03T15:19:57.083Z,24.25
2019-04-03T15:25:03.041Z,23.55
2019-04-03T15:30:12.012Z,24.14
2019-04-03T15:35:17.322Z,24.40
2019-04-03T15:40:25.217Z,24.68
2019-04-03T15:45:29.838Z,26.36
2019-04-03T15:50:37.948Z,26.93
2019-04-03T15:55:42.613Z,27.54
2019-04-03T16:00:48.347Z,27.65
2019-04-03T16:05:54.263Z,28.70
2019-04-03T16:10:59.772Z,29.19
2019-04-03T16:16:06.079Z,29.34
2019-04-03T16:21:11.907Z,29.52
2019-04-03T16:26:18.232Z,29.58
2019-04-03T16:31:23.972Z,29.76
2019-04-03T16:36:29.555Z,30.44
2019-04-03T16:41:37.669Z,30.50
2019-04-03T16:46:42.221Z,31.08
2019-04-03T16:51:47.818Z,31.40
2019-04-03T16:56:53.597Z,31.62
2019-04-03T17:01:59.001Z,31.75
2019-04-03T17:07:05.474Z,31.79
2019-04-03T17:12:11.196Z,31.79
2019-04-03T17:17:16.647Z,31.63
2019-04-03T17:22:22.229Z,31.85
2019-04-03T17:27:30.190Z,31.97
2019-04-03T17:32:35.410Z,32.33
2019-04-03T17:37:41.134Z,32.16
2019-04-03T17:42:46.798Z,32.60
2019-04-03T17:47:53.868Z,32.36
2019-04-03T17:52:59.465Z,32.42
2019-04-03T17:58:05.740Z,32.68
2019-04-03T18:03:11.331Z,32.84
2019-04-03T18:08:16.550Z,32.68
2019-04-03T18:13:23.433Z,32.70
2019-04-03T18:18:29.432Z,32.42
2019-04-03T18:23:35.357Z,32.50
2019-04-03T18:28:40.723Z,31.84
2019-04-03T18:33:46.803Z,32.44
2019-04-03T18:38:53.279Z,32.42
2019-04-03T18:43:58.617Z,32.52
2019-04-03T18:49:04.756Z,32.65
2019-04-03T18:54:11.576Z,32.41
2019-04-03T18:59:17.449Z,32.42
2019-04-03T19:04:22.861Z,32.15
2019-04-03T19:09:28.274Z,32.33
2019-04-03T19:14:33.927Z,32.21
2019-04-03T19:19:42.574Z,32.12
2019-04-03T19:24:48.102Z,31.83
2019-04-03T19:29:53.798Z,32.09
2019-04-03T19:34:59.189Z,32.12
2019-04-03T19:40:08.987Z,31.97
2019-04-03T19:45:13.871Z,32.26
2019-04-03T19:50:19.498Z,32.76
2019-04-03T19:55:25.308Z,32.93
2019-04-03T20:00:30.684Z,32.75
2019-04-03T20:05:36.051Z,33.07
2019-04-03T20:10:41.461Z,33.23
2019-04-03T20:15:47.016Z,33.24
2019-04-03T20:20:52.383Z,33.29
2019-04-03T20:25:57.633Z,33.84
2019-04-03T20:31:03.817Z,33.83
2019-04-03T20:36:09.981Z,34.04
2019-04-03T20:41:15.347Z,34.06
2019-04-03T20:46:22.070Z,34.36
2019-04-03T20:51:28.525Z,34.28
2019-04-03T20:56:34.310Z,34.80
2019-04-03T21:01:40.325Z,34.59
2019-04-03T21:06:46.293Z,34.79
2019-04-03T21:11:51.798Z,34.74
2019-04-03T21:16:57.049Z,34.56
2019-04-03T21:22:02.517Z,35.16
2019-04-03T21:27:08.866Z,35.08
2019-04-03T21:32:14.883Z,35.02
2019-04-03T21:37:20.161Z,34.87
2019-04-03T21:42:26.975Z,35.32
2019-04-03T21:47:32.582Z,35.35
2019-04-03T21:52:37.782Z,35.40
2019-04-03T21:57:43.116Z,35.54
2019-04-03T22:02:49.846Z,35.47
2019-04-03T22:07:58.267Z,35.73
2019-04-03T22:13:05.843Z,35.72
2019-04-03T22:18:12.689Z,35.89
2019-04-03T22:23:18.306Z,36.01
2019-04-03T22:28:24.016Z,36.20
2019-04-03T22:33:29.403Z,36.04
2019-04-03T22:38:36.868Z,35.98
2019-04-03T22:43:41.861Z,35.93
2019-04-03T22:48:47.309Z,36.26
2019-04-03T22:53:53.103Z,36.44
2019-04-03T22:58:58.357Z,36.45
2019-04-03T23:04:05.213Z,36.54
2019-04-03T23:09:10.597Z,36.53
2019-04-03T23:14:15.884Z,36.69
2019-04-03T23:19:21.468Z,36.61
2019-04-03T23:24:28.826Z,36.62
2019-04-03T23:29:35.946Z,36.68
2019-04-03T23:34:40.983Z,36.56
2019-04-03T23:39:46.476Z,36.55
2019-04-03T23:44:51.856Z,36.45
2019-04-03T23:49:57.149Z,36.52
2019-04-03T23:55:04.574Z,36.26
